createdAt,value
2023-12-23T00:00:14.543Z,93.46
2023-12-23T00:02:41.248Z,93.21
2023-12-23T00:05:13.284Z,93.12
2023-12-23T00:07:40.302Z,93.57
2023-12-23T00:10:07.961Z,94.10
2023-12-23T00:12:34.844Z,93.08
2023-12-23T00:15:01.806Z,93.85
2023-12-23T00:17:31.128Z,92.78
2023-12-23T00:19:58.246Z,94.44
2023-12-23T00:22:25.167Z,93.38
2023-12-23T00:24:51.905Z,93.13
2023-12-23T00:27:18.910Z,93.05
2023-12-23T00:29:45.623Z,92.26
2023-12-23T00:32:12.369Z,93.38
2023-12-23T00:34:42.332Z,93.45
2023-12-23T00:37:09.136Z,92.55
2023-12-23T00:39:35.870Z,92.47
2023-12-23T00:42:02.608Z,91.26
2023-12-23T00:44:29.577Z,91.87
2023-12-23T00:46:56.487Z,91.40
2023-12-23T00:49:25.676Z,92.92
2023-12-23T00:51:52.466Z,92.98
2023-12-23T00:54:19.171Z,91.89
2023-12-23T00:56:45.994Z,92.22
2023-12-23T00:59:15.931Z,91.54
2023-12-23T01:01:45.723Z,91.96
2023-12-23T01:04:12.610Z,91.28
2023-12-23T01:06:39.330Z,92.18
2023-12-23T01:09:06.515Z,91.84
2023-12-23T01:11:33.244Z,91.81
2023-12-23T01:14:01.463Z,91.91
2023-12-23T01:16:28.414Z,91.61
2023-12-23T01:18:58.069Z,92.25
2023-12-23T01:21:24.968Z,92.20
2023-12-23T01:23:51.750Z,91.50
2023-12-23T01:26:20.501Z,92.22
2023-12-23T01:28:47.272Z,92.36
2023-12-23T01:31:14.106Z,93.60
2023-12-23T01:33:40.928Z,93.42
2023-12-23T01:36:07.914Z,92.78
2023-12-23T01:38:34.716Z,93.24
2023-12-23T01:41:01.966Z,93.14
2023-12-23T01:43:28.816Z,93.03
2023-12-23T01:46:01.216Z,91.77
2023-12-23T01:48:43.297Z,92.81
2023-12-23T01:51:14.946Z,92.70
2023-12-23T01:53:44.830Z,92.80
2023-12-23T01:56:12.837Z,93.28
2023-12-23T01:58:39.662Z,92.89
2023-12-23T02:01:06.547Z,91.89
2023-12-23T02:03:33.391Z,91.96
2023-12-23T02:06:00.496Z,91.35
2023-12-23T02:08:27.350Z,92.63
2023-12-23T02:11:06.051Z,92.38
2023-12-23T02:13:45.825Z,93.60
2023-12-23T02:16:13.414Z,93.76
2023-12-23T02:18:40.318Z,94.55
2023-12-23T02:21:09.809Z,95.32
2023-12-23T02:23:36.500Z,94.18
2023-12-23T02:26:05.499Z,96.03
2023-12-23T02:28:34.147Z,96.02
2023-12-23T02:31:04.539Z,95.28
2023-12-23T02:33:31.472Z,95.15
2023-12-23T02:35:58.382Z,96.15
2023-12-23T02:38:25.215Z,96.97
2023-12-23T02:40:53.187Z,96.21
2023-12-23T02:43:20.045Z,96.70
2023-12-23T02:45:46.883Z,95.97
2023-12-23T02:48:13.663Z,96.17
2023-12-23T02:50:40.353Z,96.59
2023-12-23T02:53:07.303Z,96.48
2023-12-23T02:55:33.982Z,96.43
2023-12-23T02:58:06.922Z,96.56
2023-12-23T03:00:33.577Z,95.64
2023-12-23T03:03:00.467Z,96.17
2023-12-23T03:05:27.409Z,97.73
2023-12-23T03:07:59.402Z,96.57
2023-12-23T03:10:26.565Z,96.49
2023-12-23T03:13:02.596Z,97.68
2023-12-23T03:15:32.150Z,98.24
2023-12-23T03:17:59.043Z,97.55
2023-12-23T03:20:25.927Z,98.23
2023-12-23T03:22:53.230Z,97.12
2023-12-23T03:25:22.251Z,98.25
2023-12-23T03:27:51.736Z,98.32
2023-12-23T03:30:18.486Z,99.04
2023-12-23T03:32:45.585Z,98.34
2023-12-23T03:35:13.535Z,98.38
2023-12-23T03:37:40.426Z,97.96
2023-12-23T03:40:10.589Z,97.97
2023-12-23T03:42:37.679Z,97.17
2023-12-23T03:45:04.652Z,98.17
2023-12-23T03:47:31.410Z,98.33
2023-12-23T03:49:58.164Z,99.22
2023-12-23T03:52:27.194Z,98.47
2023-12-23T03:54:56.281Z,99.31
2023-12-23T03:57:24.198Z,99.41
2023-12-23T03:59:51.063Z,98.79
2023-12-23T04:02:18.678Z,99.92
2023-12-23T04:04:45.541Z,100.00
2023-12-23T04:07:12.329Z,100.00
2023-12-23T04:09:39.003Z,99.29
2023-12-23T04:12:08.904Z,99.55
2023-12-23T04:14:35.651Z,100.00
2023-12-23T04:17:02.469Z,99.60
2023-12-23T04:19:29.325Z,98.83
2023-12-23T04:21:56.033Z,98.01
2023-12-23T04:24:22.938Z,97.60
2023-12-23T04:26:49.630Z,98.22
2023-12-23T04:29:16.528Z,97.31
2023-12-23T04:31:43.305Z,97.39
2023-12-23T04:34:10.281Z,97.58
2023-12-23T04:36:37.380Z,97.48
2023-12-23T04:39:04.209Z,97.91
2023-12-23T04:41:30.826Z,97.33
2023-12-23T04:44:00.182Z,97.57
2023-12-23T04:46:27.131Z,97.82
2023-12-23T04:48:58.073Z,96.75
2023-12-23T04:51:24.850Z,97.31
2023-12-23T04:53:51.735Z,96.33
2023-12-23T04:56:23.463Z,96.41
2023-12-23T04:58:50.416Z,95.94
2023-12-23T05:01:17.151Z,96.60
2023-12-23T05:03:43.875Z,96.09
2023-12-23T05:06:10.611Z,95.94
2023-12-23T05:08:39.367Z,95.22
2023-12-23T05:11:06.098Z,95.67
2023-12-23T05:13:32.832Z,94.61
2023-12-23T05:15:59.777Z,94.53
2023-12-23T05:18:26.493Z,94.05
2023-12-23T05:20:53.438Z,95.31
2023-12-23T05:23:20.123Z,94.61
2023-12-23T05:25:46.828Z,95.29
2023-12-23T05:28:13.566Z,94.52
2023-12-23T05:30:40.345Z,95.48
2023-12-23T05:33:07.178Z,95.64
2023-12-23T05:35:33.956Z,95.71
2023-12-23T05:38:04.151Z,95.20
2023-12-23T05:40:31.633Z,95.38
2023-12-23T05:42:58.396Z,95.59
2023-12-23T05:45:25.016Z,95.44
2023-12-23T05:47:51.872Z,95.56
2023-12-23T05:50:18.861Z,95.16
2023-12-23T05:52:45.700Z,95.27
2023-12-23T05:55:12.640Z,95.03
2023-12-23T05:57:39.388Z,95.14
2023-12-23T06:00:09.289Z,94.45
2023-12-23T06:02:37.386Z,95.09
2023-12-23T06:05:04.248Z,94.94
2023-12-23T06:07:31.313Z,94.41
2023-12-23T06:09:59.832Z,94.15
2023-12-23T06:12:26.731Z,94.93
2023-12-23T06:14:53.450Z,94.20
2023-12-23T06:17:20.470Z,94.47
2023-12-23T06:19:47.503Z,93.66
2023-12-23T06:22:14.174Z,93.32
2023-12-23T06:24:40.914Z,92.91
2023-12-23T06:27:07.588Z,93.39
2023-12-23T06:29:34.299Z,93.39
2023-12-23T06:32:01.038Z,93.09
2023-12-23T06:34:27.995Z,93.74
2023-12-23T06:36:54.855Z,93.25
2023-12-23T06:39:21.853Z,92.49
2023-12-23T06:41:48.654Z,93.47
2023-12-23T06:44:15.594Z,93.47
2023-12-23T06:46:42.573Z,92.71
2023-12-23T06:49:09.548Z,92.50
2023-12-23T06:51:36.490Z,92.65
2023-12-23T06:54:03.348Z,92.58
2023-12-23T06:56:30.069Z,92.59
2023-12-23T06:58:56.772Z,91.95
2023-12-23T07:01:25.358Z,91.92
2023-12-23T07:03:54.301Z,91.37
2023-12-23T07:06:24.054Z,90.70
2023-12-23T07:08:51.009Z,90.75
2023-12-23T07:11:17.931Z,90.06
2023-12-23T07:13:44.609Z,90.27
2023-12-23T07:16:11.331Z,89.88
2023-12-23T07:18:38.379Z,87.20
2023-12-23T07:21:05.329Z,85.77
2023-12-23T07:23:32.072Z,82.97
2023-12-23T07:25:58.899Z,80.08
2023-12-23T07:28:26.024Z,78.17
2023-12-23T07:30:55.431Z,76.44
2023-12-23T07:33:22.921Z,74.00
2023-12-23T07:35:49.758Z,75.22
2023-12-23T07:38:19.322Z,76.75
2023-12-23T07:40:46.191Z,79.56
2023-12-23T07:43:13.070Z,79.18
2023-12-23T07:45:39.790Z,78.98
2023-12-23T07:48:06.970Z,80.11
2023-12-23T07:50:33.780Z,79.85
2023-12-23T07:53:00.817Z,80.03
2023-12-23T07:55:27.636Z,80.97
2023-12-23T07:57:54.281Z,80.25
2023-12-23T08:00:21.302Z,80.48
2023-12-23T08:02:48.172Z,81.85
2023-12-23T08:05:17.024Z,81.82
2023-12-23T08:07:44.352Z,82.08
2023-12-23T08:10:11.206Z,81.90
2023-12-23T08:12:37.870Z,80.88
2023-12-23T08:15:05.254Z,81.75
2023-12-23T08:17:32.047Z,81.25
2023-12-23T08:19:58.836Z,81.49
2023-12-23T08:22:25.517Z,81.62
2023-12-23T08:24:54.966Z,82.48
2023-12-23T08:27:21.771Z,82.48
2023-12-23T08:29:48.698Z,82.55
2023-12-23T08:32:15.421Z,79.19
2023-12-23T08:34:42.356Z,72.33
2023-12-23T08:37:09.083Z,72.16
2023-12-23T08:39:38.231Z,71.63
2023-12-23T08:42:07.673Z,69.34
2023-12-23T08:44:34.427Z,68.17
2023-12-23T08:47:01.092Z,64.07
2023-12-23T08:49:27.884Z,61.26
2023-12-23T08:51:54.557Z,61.47
2023-12-23T08:54:24.383Z,61.00
2023-12-23T08:56:51.320Z,58.31
2023-12-23T08:59:18.046Z,57.09
2023-12-23T09:01:45.106Z,53.00
2023-12-23T09:04:11.860Z,54.76
2023-12-23T09:06:38.720Z,58.75
2023-12-23T09:09:05.596Z,56.49
2023-12-23T09:11:32.575Z,55.93
2023-12-23T09:13:59.359Z,58.54
2023-12-23T09:16:26.068Z,60.19
2023-12-23T09:18:52.834Z,61.41
2023-12-23T09:21:19.560Z,61.15
2023-12-23T09:23:47.810Z,62.22
2023-12-23T09:26:14.511Z,61.77
2023-12-23T09:28:41.245Z,63.39
2023-12-23T09:31:07.920Z,63.40
2023-12-23T09:33:34.820Z,63.48
2023-12-23T09:36:01.549Z,64.07
2023-12-23T09:38:28.419Z,64.71
2023-12-23T09:40:55.592Z,64.96
2023-12-23T09:43:22.683Z,66.15
2023-12-23T09:45:53.499Z,68.68
2023-12-23T09:48:20.555Z,68.23
2023-12-23T09:50:48.904Z,67.17
2023-12-23T09:53:15.670Z,69.06
2023-12-23T09:55:45.884Z,70.29
2023-12-23T09:58:12.795Z,70.68
2023-12-23T10:00:42.329Z,71.49
2023-12-23T10:03:09.209Z,72.77
2023-12-23T10:05:45.000Z,73.24
2023-12-23T10:08:15.113Z,73.29
2023-12-23T10:10:41.937Z,72.35
2023-12-23T10:13:08.833Z,72.57
2023-12-23T10:15:36.922Z,72.43
2023-12-23T10:18:03.916Z,73.84
2023-12-23T10:20:32.160Z,72.34
2023-12-23T10:22:59.440Z,74.63
2023-12-23T10:25:26.281Z,75.21
2023-12-23T10:27:58.917Z,74.88
2023-12-23T10:30:26.291Z,73.05
2023-12-23T10:33:03.106Z,73.89
2023-12-23T10:35:33.416Z,74.84
2023-12-23T10:38:03.506Z,73.39
2023-12-23T10:40:30.360Z,74.47
2023-12-23T10:42:58.642Z,75.21
2023-12-23T10:45:25.933Z,74.21
2023-12-23T10:47:53.814Z,73.97
2023-12-23T10:50:24.091Z,74.38
2023-12-23T10:52:56.536Z,73.60
2023-12-23T10:55:25.031Z,74.09
2023-12-23T10:57:54.993Z,72.35
2023-12-23T11:00:21.703Z,71.95
2023-12-23T11:02:53.064Z,72.01
2023-12-23T11:05:21.590Z,70.73
2023-12-23T11:07:53.739Z,71.80
2023-12-23T11:10:25.736Z,72.38
2023-12-23T11:12:52.899Z,71.82
2023-12-23T11:15:22.512Z,69.81
2023-12-23T11:17:49.374Z,70.53
2023-12-23T11:20:34.859Z,70.76
2023-12-23T11:23:21.916Z,71.38
2023-12-23T11:25:48.743Z,70.54
2023-12-23T11:28:15.670Z,71.96
2023-12-23T11:30:57.563Z,69.74
2023-12-23T11:33:26.965Z,71.16
2023-12-23T11:35:59.781Z,70.61
2023-12-23T11:38:29.325Z,70.34
2023-12-23T11:40:56.555Z,69.75
2023-12-23T11:43:24.423Z,69.57
2023-12-23T11:45:51.582Z,70.72
2023-12-23T11:48:22.885Z,69.96
2023-12-23T11:50:51.494Z,69.83
2023-12-23T11:53:18.358Z,69.75
2023-12-23T11:55:45.949Z,70.11
2023-12-23T11:58:13.810Z,71.63
2023-12-23T12:00:40.733Z,71.18
2023-12-23T12:03:07.420Z,70.41
2023-12-23T12:05:34.206Z,71.91
2023-12-23T12:08:04.369Z,72.73
2023-12-23T12:10:31.325Z,72.44
2023-12-23T12:12:58.110Z,73.07
2023-12-23T12:15:24.956Z,72.85
2023-12-23T12:17:52.898Z,73.51
2023-12-23T12:20:21.542Z,71.95
2023-12-23T12:22:49.253Z,72.54
2023-12-23T12:25:16.803Z,73.29
2023-12-23T12:27:43.729Z,73.03
2023-12-23T12:30:12.101Z,74.24
2023-12-23T12:32:44.809Z,73.00
2023-12-23T12:35:12.570Z,72.83
2023-12-23T12:37:43.002Z,72.86
2023-12-23T12:40:13.855Z,73.40
2023-12-23T12:42:50.238Z,73.11
2023-12-23T12:45:17.446Z,72.19
2023-12-23T12:47:44.249Z,72.65
2023-12-23T12:50:11.101Z,73.45
2023-12-23T12:52:37.786Z,72.11
2023-12-23T12:55:05.313Z,72.93
2023-12-23T12:57:31.963Z,71.77
2023-12-23T12:59:58.777Z,73.12
2023-12-23T13:02:25.768Z,72.72
2023-12-23T13:04:52.648Z,71.75
2023-12-23T13:07:19.373Z,73.05
2023-12-23T13:09:46.260Z,72.75
2023-12-23T13:12:13.016Z,71.79
2023-12-23T13:14:39.795Z,72.93
2023-12-23T13:17:06.783Z,73.73
2023-12-23T13:19:33.729Z,73.10
2023-12-23T13:22:00.416Z,71.86
2023-12-23T13:24:27.226Z,72.10
2023-12-23T13:26:53.899Z,72.66
2023-12-23T13:29:21.854Z,72.48
2023-12-23T13:31:48.661Z,73.04
2023-12-23T13:34:15.468Z,72.51
2023-12-23T13:36:42.371Z,72.10
2023-12-23T13:39:09.315Z,72.84
2023-12-23T13:41:36.059Z,71.95
2023-12-23T13:44:02.810Z,71.93
2023-12-23T13:46:29.541Z,71.84
2023-12-23T13:48:56.328Z,71.75
2023-12-23T13:51:24.220Z,70.94
2023-12-23T13:53:51.379Z,70.54
2023-12-23T13:56:18.306Z,71.44
2023-12-23T13:58:44.990Z,71.10
2023-12-23T14:01:11.760Z,71.27
2023-12-23T14:03:38.510Z,70.54
2023-12-23T14:06:05.703Z,70.50
2023-12-23T14:08:32.379Z,70.28
2023-12-23T14:11:04.749Z,69.23
2023-12-23T14:13:31.460Z,70.23
2023-12-23T14:15:59.643Z,68.93
2023-12-23T14:18:26.638Z,68.83
2023-12-23T14:20:53.400Z,69.47
2023-12-23T14:23:27.073Z,68.99
2023-12-23T14:25:53.976Z,68.97
2023-12-23T14:28:20.651Z,68.86
2023-12-23T14:30:47.412Z,68.04
2023-12-23T14:33:14.257Z,69.91
2023-12-23T14:35:41.168Z,69.39
2023-12-23T14:38:07.944Z,69.58
2023-12-23T14:40:37.389Z,69.62
2023-12-23T14:43:04.249Z,69.04
2023-12-23T14:45:31.104Z,70.38
2023-12-23T14:47:57.864Z,69.95
2023-12-23T14:50:24.643Z,69.84
2023-12-23T14:52:51.736Z,71.29
2023-12-23T14:55:18.613Z,71.25
2023-12-23T14:57:45.364Z,70.87
2023-12-23T15:00:12.990Z,71.52
2023-12-23T15:02:40.819Z,70.74
2023-12-23T15:05:07.985Z,70.89
2023-12-23T15:07:34.693Z,71.40
2023-12-23T15:10:01.651Z,70.85
2023-12-23T15:12:31.407Z,71.42
2023-12-23T15:14:58.156Z,72.51
2023-12-23T15:17:24.930Z,72.70
2023-12-23T15:19:51.716Z,72.96
2023-12-23T15:22:18.402Z,73.06
2023-12-23T15:24:47.336Z,73.72
2023-12-23T15:27:15.221Z,73.32
2023-12-23T15:29:41.999Z,73.08
2023-12-23T15:32:08.713Z,72.94
2023-12-23T15:34:35.432Z,72.77
2023-12-23T15:37:02.161Z,73.46
2023-12-23T15:39:28.943Z,73.60
2023-12-23T15:41:55.785Z,74.50
2023-12-23T15:44:22.694Z,74.35
2023-12-23T15:46:49.571Z,75.19
2023-12-23T15:49:16.589Z,75.54
2023-12-23T15:51:43.436Z,75.06
2023-12-23T15:54:13.532Z,75.05
2023-12-23T15:56:40.516Z,75.92
2023-12-23T15:59:10.486Z,78.64
2023-12-23T16:01:37.421Z,81.41
2023-12-23T16:04:04.449Z,83.29
2023-12-23T16:06:31.386Z,84.42
2023-12-23T16:08:58.084Z,85.20
2023-12-23T16:11:25.049Z,86.52
2023-12-23T16:13:51.952Z,86.05
2023-12-23T16:16:18.750Z,87.17
2023-12-23T16:18:45.721Z,86.99
2023-12-23T16:21:12.657Z,88.06
2023-12-23T16:23:39.749Z,87.29
2023-12-23T16:26:13.767Z,88.16
2023-12-23T16:28:40.413Z,89.47
2023-12-23T16:31:07.208Z,90.22
2023-12-23T16:33:34.122Z,90.48
2023-12-23T16:36:00.844Z,92.06
2023-12-23T16:38:27.570Z,91.78
2023-12-23T16:40:56.153Z,93.14
2023-12-23T16:43:22.822Z,94.26
2023-12-23T16:45:49.477Z,93.60
2023-12-23T16:48:16.302Z,92.99
2023-12-23T16:50:44.102Z,95.56
2023-12-23T16:53:11.084Z,95.95
2023-12-23T16:55:37.744Z,96.42
2023-12-23T16:58:04.688Z,96.85
2023-12-23T17:00:31.430Z,96.51
2023-12-23T17:02:58.231Z,97.69
2023-12-23T17:05:25.002Z,96.37
2023-12-23T17:07:54.923Z,98.00
2023-12-23T17:10:21.574Z,97.41
2023-12-23T17:12:48.251Z,97.61
2023-12-23T17:15:15.076Z,98.60
2023-12-23T17:17:42.183Z,97.99
2023-12-23T17:20:10.330Z,99.29
2023-12-23T17:22:39.549Z,97.78
2023-12-23T17:25:06.616Z,98.72
2023-12-23T17:27:33.517Z,98.52
2023-12-23T17:30:00.463Z,98.71
2023-12-23T17:32:27.396Z,98.66
2023-12-23T17:34:56.128Z,99.05
2023-12-23T17:37:22.970Z,100.00
2023-12-23T17:39:52.357Z,100.00
2023-12-23T17:42:18.992Z,99.87
2023-12-23T17:44:46.839Z,100.00
2023-12-23T17:47:13.673Z,99.23
2023-12-23T17:49:40.370Z,100.00
2023-12-23T17:52:08.492Z,100.00
2023-12-23T17:54:35.245Z,99.70
2023-12-23T17:57:01.999Z,100.00
2023-12-23T17:59:28.755Z,100.00
2023-12-23T18:01:55.552Z,100.00
2023-12-23T18:04:25.306Z,100.00
2023-12-23T18:06:51.965Z,100.00
2023-12-23T18:09:21.594Z,100.00
2023-12-23T18:11:48.334Z,100.00
2023-12-23T18:14:15.111Z,100.00
2023-12-23T18:16:43.216Z,100.00
2023-12-23T18:19:10.172Z,100.00
2023-12-23T18:21:37.055Z,100.00
2023-12-23T18:24:06.801Z,100.00
2023-12-23T18:26:33.626Z,100.00
2023-12-23T18:29:00.379Z,100.00
2023-12-23T18:31:27.329Z,100.00
2023-12-23T18:33:54.434Z,100.00
2023-12-23T18:36:23.400Z,100.00
2023-12-23T18:38:50.115Z,100.00
2023-12-23T18:41:17.054Z,100.00
2023-12-23T18:43:43.960Z,100.00
2023-12-23T18:46:12.262Z,100.00
2023-12-23T18:48:43.405Z,100.00
2023-12-23T18:51:10.369Z,100.00
2023-12-23T18:53:37.747Z,100.00
2023-12-23T18:56:04.774Z,100.00
2023-12-23T18:58:31.708Z,100.00
2023-12-23T19:00:58.489Z,100.00
2023-12-23T19:03:26.973Z,100.00
2023-12-23T19:05:53.795Z,100.00
2023-12-23T19:08:20.563Z,100.00
2023-12-23T19:10:47.305Z,100.00
2023-12-23T19:13:14.117Z,100.00
2023-12-23T19:15:40.858Z,100.00
2023-12-23T19:18:07.983Z,100.00
2023-12-23T19:20:34.864Z,100.00
2023-12-23T19:23:02.097Z,100.00
2023-12-23T19:25:30.581Z,100.00
2023-12-23T19:27:57.391Z,100.00
2023-12-23T19:30:24.333Z,100.00
2023-12-23T19:32:51.601Z,100.00
2023-12-23T19:35:18.764Z,100.00
2023-12-23T19:37:45.738Z,100.00
2023-12-23T19:40:13.094Z,100.00
2023-12-23T19:42:39.929Z,100.00
2023-12-23T19:45:08.393Z,100.00
2023-12-23T19:47:35.275Z,100.00
2023-12-23T19:50:02.144Z,100.00
2023-12-23T19:52:28.801Z,100.00
2023-12-23T19:54:55.646Z,100.00
2023-12-23T19:57:22.588Z,100.00
2023-12-23T19:59:49.347Z,100.00
2023-12-23T20:02:16.251Z,100.00
2023-12-23T20:04:43.030Z,100.00
2023-12-23T20:07:09.975Z,100.00
2023-12-23T20:09:37.602Z,100.00
2023-12-23T20:12:05.582Z,100.00
2023-12-23T20:14:34.264Z,100.00
2023-12-23T20:17:01.130Z,100.00
2023-12-23T20:19:28.022Z,100.00
2023-12-23T20:21:54.801Z,100.00
2023-12-23T20:24:21.706Z,100.00
2023-12-23T20:26:48.399Z,100.00
2023-12-23T20:29:15.386Z,100.00
2023-12-23T20:31:42.147Z,100.00
2023-12-23T20:34:08.967Z,100.00
2023-12-23T20:36:43.148Z,100.00
2023-12-23T20:39:10.305Z,100.00
2023-12-23T20:41:42.435Z,100.00
2023-12-23T20:44:09.482Z,100.00
2023-12-23T20:46:36.259Z,100.00
2023-12-23T20:49:03.782Z,100.00
2023-12-23T20:51:32.378Z,100.00
2023-12-23T20:53:59.303Z,100.00
2023-12-23T20:56:28.963Z,100.00
2023-12-23T20:58:57.350Z,100.00
2023-12-23T21:01:26.670Z,100.00
2023-12-23T21:03:54.335Z,100.00
2023-12-23T21:06:21.213Z,100.00
2023-12-23T21:08:49.444Z,100.00
2023-12-23T21:11:17.438Z,100.00
2023-12-23T21:13:45.364Z,100.00
2023-12-23T21:16:12.143Z,100.00
2023-12-23T21:18:45.608Z,100.00
2023-12-23T21:21:13.490Z,100.00
2023-12-23T21:23:40.608Z,100.00
2023-12-23T21:26:23.448Z,100.00
2023-12-23T21:28:50.477Z,100.00
2023-12-23T21:31:19.670Z,100.00
2023-12-23T21:33:46.526Z,100.00
2023-12-23T21:36:13.458Z,100.00
2023-12-23T21:38:40.258Z,100.00
2023-12-23T21:41:07.062Z,100.00
2023-12-23T21:43:33.963Z,100.00
2023-12-23T21:46:00.853Z,100.00
2023-12-23T21:48:27.623Z,100.00
2023-12-23T21:50:54.449Z,100.00
2023-12-23T21:53:24.573Z,100.00
2023-12-23T21:55:51.798Z,100.00
2023-12-23T21:58:18.656Z,100.00
2023-12-23T22:00:45.415Z,100.00
2023-12-23T22:03:12.246Z,100.00
2023-12-23T22:05:39.040Z,100.00
2023-12-23T22:08:06.322Z,100.00
2023-12-23T22:10:33.038Z,100.00
2023-12-23T22:13:03.080Z,100.00
2023-12-23T22:15:29.835Z,100.00
2023-12-23T22:17:56.522Z,100.00
2023-12-23T22:20:26.192Z,100.00
2023-12-23T22:22:56.216Z,100.00
2023-12-23T22:25:23.128Z,100.00
2023-12-23T22:27:49.898Z,100.00
2023-12-23T22:30:17.235Z,100.00
2023-12-23T22:32:44.135Z,100.00
2023-12-23T22:35:10.976Z,100.00
2023-12-23T22:37:38.105Z,100.00
2023-12-23T22:40:05.460Z,100.00
2023-12-23T22:42:32.387Z,100.00
2023-12-23T22:44:59.213Z,100.00
2023-12-23T22:47:26.492Z,100.00
2023-12-23T22:49:53.238Z,100.00
2023-12-23T22:52:22.115Z,100.00
2023-12-23T22:54:50.962Z,100.00
2023-12-23T22:57:19.350Z,100.00
2023-12-23T22:59:46.294Z,100.00
2023-12-23T23:02:13.181Z,100.00
2023-12-23T23:04:42.953Z,100.00
2023-12-23T23:07:12.170Z,100.00
2023-12-23T23:09:39.821Z,100.00
2023-12-23T23:12:13.029Z,100.00
2023-12-23T23:14:39.784Z,100.00
2023-12-23T23:17:08.812Z,100.00
2023-12-23T23:19:35.852Z,100.00
2023-12-23T23:22:02.663Z,100.00
2023-12-23T23:24:29.324Z,100.00
2023-12-23T23:26:55.971Z,100.00
2023-12-23T23:29:22.851Z,100.00
2023-12-23T23:31:49.635Z,100.00
2023-12-23T23:34:16.635Z,100.00
2023-12-23T23:36:43.556Z,100.00
2023-12-23T23:39:10.329Z,100.00
2023-12-23T23:41:40.274Z,100.00
2023-12-23T23:44:08.532Z,100.00
2023-12-23T23:46:36.455Z,100.00
2023-12-23T23:49:03.104Z,100.00
2023-12-23T23:51:32.949Z,100.00
2023-12-23T23:53:59.760Z,100.00
2023-12-23T23:56:26.637Z,100.00
2023-12-23T23:58:53.830Z,100.00
